Time;durP1;ratioP1;P1;durP2;ratioP2;P2;SDS_P1;SDS_P2;PMS_P1;PMS_P2;Temp;Humidity;BMP_temperature;BMP_pressure;BME280_temperature;BME280_humidity;BME280_pressure;Samples;Min_cycle;Max_cycle;Signal;HPM_P1;HPM_P2
2023/01/02 00:02:08;;;;;;;;;;;;;;;5.45;100.00;101499.69;5566750;32;33900;-71
2023/01/02 00:05:16;;;;;;;;;;;;;;;5.50;100.00;101494.94;5552826;32;33993;-71
2023/01/02 00:08:23;;;;;;;;;;;;;;;5.50;100.00;101486.19;5566805;32;34588;-72
2023/01/02 00:11:30;;;;;;;;;;;;;;;5.43;100.00;101488.41;5567731;32;34650;-71
2023/01/02 00:14:39;;;;;;;;;;;;;;;5.43;100.00;101480.53;5567465;32;34953;-72
2023/01/02 00:17:47;;;;;;;;;;;;;;;5.38;100.00;101492.31;5540786;32;32741;-71
2023/01/02 00:21:01;;;;;;;;;;;;;;;5.42;100.00;101491.19;5567318;32;34987;-72
2023/01/02 00:24:11;;;;;;;;;;;;;;;5.32;100.00;101492.75;5567129;32;35024;-72
2023/01/02 00:27:21;;;;;;;;;;;;;;;5.30;100.00;101486.75;5567373;32;33978;-72
2023/01/02 00:30:31;;;;;;;;;;;;;;;5.12;100.00;101494.16;5567269;32;34038;-72
2023/01/02 00:33:44;;;;;;;;;;;;;;;5.10;100.00;101488.97;5554634;32;33968;-73
2023/01/02 00:36:53;;;;;;;;;;;;;;;5.09;100.00;101482.03;5567171;32;34811;-72
2023/01/02 00:40:01;;;;;;;;;;;;;;;4.92;100.00;101492.03;5554004;32;34107;-72
2023/01/02 00:43:11;;;;;;;;;;;;;;;5.10;100.00;101496.03;5553115;32;32733;-72
2023/01/02 00:46:20;;;;;;;;;;;;;;;5.11;100.00;101500.34;5567218;32;34808;-72
2023/01/02 00:49:28;;;;;;;;;;;;;;;5.14;100.00;101503.59;5567078;32;34366;-72
2023/01/02 00:52:34;;;;;;;;;;;;;;;5.22;100.00;101506.56;5540452;32;33997;-72
2023/01/02 00:55:45;;;;;;;;;;;;;;;5.25;100.00;101490.56;5566732;32;34849;-72
2023/01/02 00:58:50;;;;;;;;;;;;;;;5.29;100.00;101493.81;5553280;32;34727;-72
2023/01/02 01:01:58;;;;;;;;;;;;;;;5.51;100.00;101507.16;5566946;32;34055;-72
2023/01/02 01:05:07;;;;;;;;;;;;;;;5.48;100.00;101502.09;5555015;32;33693;-72
2023/01/02 01:08:17;;;;;;;;;;;;;;;5.60;100.00;101501.25;5568985;32;34253;-72
2023/01/02 01:11:25;;;;;;;;;;;;;;;5.72;100.00;101501.31;5569113;32;34951;-72
2023/01/02 01:14:33;;;;;;;;;;;;;;;5.82;100.00;101489.16;5569275;32;34015;-72
2023/01/02 01:17:42;;;;;;;;;;;;;;;5.81;100.00;101485.69;5555909;32;33661;-72
2023/01/02 01:20:50;;;;;;;;;;;;;;;5.79;100.00;101484.97;5554904;32;33965;-71
2023/01/02 01:23:58;;;;;;;;;;;;;;;5.85;100.00;101489.81;5568925;32;34185;-72
2023/01/02 01:27:05;;;;;;;;;;;;;;;5.86;100.00;101494.09;5568913;32;34532;-71
2023/01/02 01:30:12;;;;;;;;;;;;;;;5.93;100.00;101491.91;5554491;32;35642;-71
2023/01/02 01:33:23;;;;;;;;;;;;;;;5.95;100.00;101493.50;5569140;32;33656;-72
2023/01/02 01:36:30;;;;;;;;;;;;;;;5.96;100.00;101491.66;5569059;32;34521;-71
2023/01/02 01:39:38;;;;;;;;;;;;;;;5.97;100.00;101483.66;5569015;32;33792;-73
2023/01/02 01:42:48;;;;;;;;;;;;;;;5.98;100.00;101477.47;5569203;32;34927;-71
2023/01/02 01:46:07;;;;;;;;;;;;;;;5.98;100.00;101471.34;5568919;32;34300;-71
2023/01/02 01:49:17;;;;;;;;;;;;;;;6.01;100.00;101469.31;5569067;32;34178;-72
2023/01/02 01:52:27;;;;;;;;;;;;;;;6.15;100.00;101451.69;5569022;32;34859;-72
2023/01/02 01:55:40;;;;;;;;;;;;;;;6.06;100.00;101437.37;5569075;32;34178;-73
2023/01/02 01:58:48;;;;;;;;;;;;;;;6.12;100.00;101444.84;5568790;32;35006;-72
2023/01/02 02:01:56;;;;;;;;;;;;;;;6.23;100.00;101439.63;5568884;32;34728;-73
2023/01/02 02:05:05;;;;;;;;;;;;;;;6.16;100.00;101441.00;5568884;32;34008;-72
2023/01/02 02:08:32;;;;;;;;;;;;;;;6.25;100.00;101442.97;5548360;32;33067;-73
2023/01/02 02:11:41;;;;;;;;;;;;;;;6.23;100.00;101431.72;5549694;32;34957;-72
2023/01/02 02:14:50;;;;;;;;;;;;;;;6.19;100.00;101427.63;5548125;32;34615;-72
2023/01/02 02:18:02;;;;;;;;;;;;;;;6.16;100.00;101424.34;5536005;32;33163;-72
2023/01/02 02:21:11;;;;;;;;;;;;;;;6.19;100.00;101425.00;5549378;32;34160;-72
2023/01/02 02:24:29;;;;;;;;;;;;;;;6.23;100.00;101415.06;5549099;32;34281;-71
2023/01/02 02:27:48;;;;;;;;;;;;;;;6.30;100.00;101421.53;5547597;32;33472;-72
2023/01/02 02:31:02;;;;;;;;;;;;;;;6.26;100.00;101417.44;5548929;32;34610;-72
2023/01/02 02:34:16;;;;;;;;;;;;;;;6.22;100.00;101416.00;5549042;32;34132;-71
2023/01/02 02:37:33;;;;;;;;;;;;;;;6.28;100.00;101418.19;5549063;32;34883;-72
2023/01/02 02:40:48;;;;;;;;;;;;;;;6.28;100.00;101418.19;5547833;32;32678;-73
2023/01/02 02:43:56;;;;;;;;;;;;;;;6.16;100.00;101413.81;5548120;32;33912;-72
2023/01/02 02:47:13;;;;;;;;;;;;;;;6.24;100.00;101419.38;5548945;32;34201;-72
2023/01/02 02:50:30;;;;;;;;;;;;;;;6.29;100.00;101410.19;5548894;32;34602;-72
2023/01/02 02:53:45;;;;;;;;;;;;;;;6.17;100.00;101405.81;5549018;32;34470;-73
2023/01/02 02:56:53;;;;;;;;;;;;;;;6.12;100.00;101411.44;5548990;32;34550;-72
2023/01/02 02:59:59;;;;;;;;;;;;;;;6.23;100.00;101415.91;5548777;32;34190;-72
2023/01/02 03:03:18;;;;;;;;;;;;;;;6.15;100.00;101418.25;5548598;32;35073;-72
2023/01/02 03:06:40;;;;;;;;;;;;;;;6.25;100.00;101415.75;5548818;32;34413;-72
2023/01/02 03:09:57;;;;;;;;;;;;;;;6.16;100.00;101421.72;5565681;32;34102;-72
2023/01/02 03:13:07;;;;;;;;;;;;;;;6.07;100.00;101418.81;5554223;32;33378;-72
2023/01/02 03:16:33;;;;;;;;;;;;;;;6.05;100.00;101410.19;5568102;32;34403;-72
2023/01/02 03:19:44;;;;;;;;;;;;;;;6.05;100.00;101402.28;5568047;32;35227;-73
2023/01/02 03:22:59;;;;;;;;;;;;;;;6.05;100.00;101417.28;5555329;32;34246;-72
2023/01/02 03:26:10;;;;;;;;;;;;;;;6.02;100.00;101407.78;5540922;32;35404;-73
2023/01/02 03:29:21;;;;;;;;;;;;;;;6.03;100.00;101412.13;5567924;31;34335;-72
2023/01/02 03:32:37;;;;;;;;;;;;;;;6.07;100.00;101405.66;5568124;32;34563;-72
2023/01/02 03:35:46;;;;;;;;;;;;;;;6.06;100.00;101397.84;5553867;32;34408;-73
2023/01/02 03:39:19;;;;;;;;;;;;;;;6.14;100.00;101395.50;5568146;32;34912;-71
2023/01/02 03:42:34;;;;;;;;;;;;;;;6.14;100.00;101395.50;5568080;32;34821;-72
2023/01/02 03:45:45;;;;;;;;;;;;;;;6.07;100.00;101389.84;5568191;32;34337;-72
2023/01/02 03:48:59;;;;;;;;;;;;;;;6.07;100.00;101399.53;5567947;32;34165;-72
2023/01/02 03:52:06;;;;;;;;;;;;;;;6.10;100.00;101399.31;5542311;32;33969;-72
2023/01/02 03:55:10;;;;;;;;;;;;;;;6.09;100.00;101401.12;5568168;32;33978;-72
2023/01/02 03:58:25;;;;;;;;;;;;;;;6.22;100.00;101402.84;5554682;32;34447;-72
2023/01/02 04:01:41;;;;;;;;;;;;;;;6.08;100.00;101403.88;5568075;32;34343;-72
2023/01/02 04:04:54;;;;;;;;;;;;;;;6.02;100.00;101401.69;5567717;32;34149;-72
2023/01/02 04:08:00;;;;;;;;;;;;;;;6.01;100.00;101407.91;5516374;32;1201937;-71
2023/01/02 04:11:10;;;;;;;;;;;;;;;6.03;100.00;101409.47;5567737;32;34051;-72
2023/01/02 04:14:25;;;;;;;;;;;;;;;6.04;100.00;101402.41;5567844;32;34464;-72
2023/01/02 04:17:35;;;;;;;;;;;;;;;6.04;100.00;101405.91;5554488;32;34755;-73
2023/01/02 04:20:47;;;;;;;;;;;;;;;6.04;100.00;101398.00;5567906;32;34732;-72
2023/01/02 04:24:03;;;;;;;;;;;;;;;6.05;100.00;101404.09;5567635;32;34919;-73
2023/01/02 04:27:18;;;;;;;;;;;;;;;6.15;100.00;101399.81;5567624;32;34819;-72
2023/01/02 04:30:31;;;;;;;;;;;;;;;6.10;100.00;101407.22;5567361;32;34789;-72
2023/01/02 04:33:40;;;;;;;;;;;;;;;6.05;100.00;101415.44;5554093;32;34675;-72
2023/01/02 04:36:49;;;;;;;;;;;;;;;6.04;100.00;101415.59;5554029;32;33679;-71
2023/01/02 04:40:00;;;;;;;;;;;;;;;6.01;100.00;101415.78;5553908;32;34342;-71
2023/01/02 04:43:18;;;;;;;;;;;;;;;5.97;100.00;101415.19;5567162;32;34366;-72
2023/01/02 04:46:27;;;;;;;;;;;;;;;6.02;100.00;101415.69;5567189;32;34467;-72
2023/01/02 04:49:34;;;;;;;;;;;;;;;6.03;100.00;101416.53;5553661;32;34796;-71
2023/01/02 04:52:42;;;;;;;;;;;;;;;6.01;100.00;101423.69;5567307;32;34291;-72
2023/01/02 04:55:57;;;;;;;;;;;;;;;6.05;100.00;101425.19;5565303;32;34711;-73
2023/01/02 04:59:02;;;;;;;;;;;;;;;6.01;100.00;101418.44;5567094;32;34356;-73
2023/01/02 05:02:09;;;;;;;;;;;;;;;5.98;100.00;101411.62;5567008;32;34316;-72
2023/01/02 05:05:15;;;;;;;;;;;;;;;5.97;100.00;101414.34;5559901;31;34368;-72
2023/01/02 05:08:21;;;;;;;;;;;;;;;5.93;100.00;101429.53;5553968;32;34595;-73
2023/01/02 05:11:28;;;;;;;;;;;;;;;5.87;100.00;101426.50;5553435;32;34414;-73
2023/01/02 05:14:37;;;;;;;;;;;;;;;5.81;100.00;101424.31;5567036;32;34619;-73
2023/01/02 05:17:47;;;;;;;;;;;;;;;5.80;100.00;101420.84;5565828;32;34900;-72
2023/01/02 05:24:33;;;;;;;;;;;;;;;5.73;100.00;101410.84;5566356;32;34133;-72
2023/01/02 05:27:41;;;;;;;;;;;;;;;5.73;100.00;101414.31;5566777;32;34988;-72
2023/01/02 05:30:48;;;;;;;;;;;;;;;5.72;100.00;101417.91;5566498;32;34413;-72
2023/01/02 05:33:57;;;;;;;;;;;;;;;5.75;100.00;101415.06;5566504;32;33139;-72
2023/01/02 05:37:06;;;;;;;;;;;;;;;5.76;100.00;101418.53;5552884;32;34003;-73
2023/01/02 05:40:15;;;;;;;;;;;;;;;5.74;100.00;101412.53;5566456;32;34866;-72
2023/01/02 05:43:22;;;;;;;;;;;;;;;5.76;100.00;101415.91;5565440;32;35750;-72
2023/01/02 05:46:32;;;;;;;;;;;;;;;5.81;100.00;101417.22;5566147;32;34901;-74
2023/01/02 05:49:40;;;;;;;;;;;;;;;5.82;100.00;101415.44;5567929;32;33837;-72
2023/01/02 05:52:48;;;;;;;;;;;;;;;5.84;100.00;101416.19;5567561;32;34842;-73
2023/01/02 05:56:02;;;;;;;;;;;;;;;5.78;100.00;101419.25;5567486;32;34492;-73
2023/01/02 05:59:09;;;;;;;;;;;;;;;5.77;100.00;101412.28;5568429;32;34746;-73
2023/01/02 06:02:13;;;;;;;;;;;;;;;5.82;100.00;101415.44;5573693;31;34568;-73
2023/01/02 06:05:21;;;;;;;;;;;;;;;5.82;100.00;101418.06;5578865;31;34491;-73
2023/01/02 06:08:28;;;;;;;;;;;;;;;5.86;100.00;101415.09;5568535;32;35419;-73
2023/01/02 06:11:35;;;;;;;;;;;;;;;5.78;100.00;101414.81;5569136;32;34673;-73
2023/01/02 06:14:42;;;;;;;;;;;;;;;5.82;100.00;101413.66;5553184;32;34784;-73
2023/01/02 06:17:49;;;;;;;;;;;;;;;5.81;100.00;101406.69;5568678;32;34206;-73
2023/01/02 06:20:59;;;;;;;;;;;;;;;5.81;100.00;101398.78;5568229;32;34829;-73
2023/01/02 06:24:05;;;;;;;;;;;;;;;5.79;100.00;101402.50;5566053;32;34786;-73
2023/01/02 06:27:10;;;;;;;;;;;;;;;5.75;100.00;101411.59;5554205;32;32564;-74
2023/01/02 06:30:17;;;;;;;;;;;;;;;5.87;100.00;101416.81;5567718;32;34912;-73
2023/01/02 06:33:24;;;;;;;;;;;;;;;5.87;100.00;101405.44;5568380;32;34700;-73
2023/01/02 06:36:33;;;;;;;;;;;;;;;5.86;100.00;101404.56;5555076;32;33933;-74
2023/01/02 06:39:41;;;;;;;;;;;;;;;5.93;100.00;101408.47;5555223;32;33945;-72
2023/01/02 06:42:47;;;;;;;;;;;;;;;5.89;100.00;101411.44;5568396;32;34202;-73
2023/01/02 06:45:58;;;;;;;;;;;;;;;5.81;100.00;101406.69;5555174;32;35014;-73
2023/01/02 06:49:05;;;;;;;;;;;;;;;5.79;100.00;101402.50;5554900;32;34681;-73
2023/01/02 06:52:12;;;;;;;;;;;;;;;5.78;100.00;101408.72;5570800;31;34378;-73
2023/01/02 06:55:21;;;;;;;;;;;;;;;5.81;100.00;101414.59;5578908;31;34751;-73
2023/01/02 06:58:28;;;;;;;;;;;;;;;5.85;100.00;101412.59;5554880;32;34165;-73
2023/01/02 07:01:37;;;;;;;;;;;;;;;5.87;100.00;101405.44;5567115;32;33880;-72
2023/01/02 07:04:46;;;;;;;;;;;;;;;5.89;100.00;101411.44;5568303;32;35070;-73
2023/01/02 07:07:53;;;;;;;;;;;;;;;5.96;100.00;101413.50;5568065;32;34847;-73
2023/01/02 07:11:07;;;;;;;;;;;;;;;6.00;100.00;101420.22;5568173;32;33743;-73
2023/01/02 07:14:18;;;;;;;;;;;;;;;6.12;100.00;101424.59;5568183;32;34333;-73
2023/01/02 07:17:23;;;;;;;;;;;;;;;6.20;100.00;101425.81;5554351;32;33667;-73
2023/01/02 07:20:33;;;;;;;;;;;;;;;6.26;100.00;101431.47;5556364;32;34429;-73
2023/01/02 07:23:41;;;;;;;;;;;;;;;6.34;100.00;101436.19;5567834;32;34310;-74
2023/01/02 07:26:49;;;;;;;;;;;;;;;6.25;100.00;101429.78;5567956;32;34242;-73
2023/01/02 07:29:58;;;;;;;;;;;;;;;6.37;100.00;101436.78;5554558;32;34211;-72
2023/01/02 07:33:06;;;;;;;;;;;;;;;6.36;100.00;101443.00;5554347;32;34704;-73
2023/01/02 07:36:17;;;;;;;;;;;;;;;6.23;100.00;101442.25;5554113;32;34057;-74
2023/01/02 07:39:28;;;;;;;;;;;;;;;6.29;100.00;101436.53;5568078;32;34272;-74
2023/01/02 07:42:33;;;;;;;;;;;;;;;6.32;100.00;101435.44;5553145;32;34365;-74
2023/01/02 07:45:40;;;;;;;;;;;;;;;6.18;100.00;101438.28;5554001;31;33287;-73
2023/01/02 07:48:54;;;;;;;;;;;;;;;6.15;100.00;101439.31;5567772;32;34926;-72
2023/01/02 07:52:01;;;;;;;;;;;;;;;6.27;100.00;101440.22;5567613;32;34945;-73
2023/01/02 07:55:09;;;;;;;;;;;;;;;6.42;100.00;101442.56;5567601;32;34917;-72
2023/01/02 07:58:18;;;;;;;;;;;;;;;6.44;100.00;101437.16;5566542;32;34371;-73
2023/01/02 08:01:22;;;;;;;;;;;;;;;6.49;100.00;101451.66;5567645;32;34858;-72
2023/01/02 08:04:26;;;;;;;;;;;;;;;6.47;100.00;101447.47;5567229;32;33998;-72
2023/01/02 08:07:33;;;;;;;;;;;;;;;6.57;100.00;101442.34;5567406;32;34405;-73
2023/01/02 08:10:50;;;;;;;;;;;;;;;6.60;100.00;101442.09;5552816;32;32895;-72
2023/01/02 08:13:56;;;;;;;;;;;;;;;6.52;100.00;101437.44;5567401;32;34287;-72
2023/01/02 08:17:02;;;;;;;;;;;;;;;6.44;100.00;101437.16;5567563;32;34286;-72
2023/01/02 08:20:10;;;;;;;;;;;;;;;6.36;100.00;101432.47;5567402;32;34205;-73
2023/01/02 08:23:17;;;;;;;;;;;;;;;6.27;100.00;101433.16;5541096;32;33376;-73
2023/01/02 08:26:22;;;;;;;;;;;;;;;6.27;100.00;101432.31;5553572;32;34274;-73
2023/01/02 08:29:31;;;;;;;;;;;;;;;6.26;100.00;101447.28;5566578;32;34710;-72
2023/01/02 08:32:38;;;;;;;;;;;;;;;6.33;100.00;101437.97;5553556;32;34016;-73
2023/01/02 08:35:44;;;;;;;;;;;;;;;6.43;100.00;101440.75;5567583;32;34255;-73
2023/01/02 08:38:54;;;;;;;;;;;;;;;6.42;100.00;101444.34;5567502;32;34428;-72
2023/01/02 08:42:01;;;;;;;;;;;;;;;6.60;100.00;101436.84;5567217;32;34883;-73
2023/01/02 08:45:09;;;;;;;;;;;;;;;6.77;100.00;101439.88;5566872;32;34739;-73
2023/01/02 08:48:17;;;;;;;;;;;;;;;6.79;100.00;101442.38;5567192;32;34299;-73
2023/01/02 08:51:25;;;;;;;;;;;;;;;6.98;100.00;101438.22;5553590;32;34258;-73
2023/01/02 08:54:32;;;;;;;;;;;;;;;7.13;100.00;101448.53;5540446;32;34274;-73
2023/01/02 08:57:36;;;;;;;;;;;;;;;6.88;100.00;101446.94;5567055;32;34909;-73
2023/01/02 09:00:46;;;;;;;;;;;;;;;6.73;100.00;101446.34;5553762;32;34242;-73
2023/01/02 09:03:53;;;;;;;;;;;;;;;6.88;100.00;101446.94;5540069;32;34709;-72
2023/01/02 09:07:02;;;;;;;;;;;;;;;7.16;100.00;101443.03;5566514;32;35044;-73
2023/01/02 09:10:08;;;;;;;;;;;;;;;7.30;100.00;101443.63;5552277;32;32821;-73
2023/01/02 09:13:14;;;;;;;;;;;;;;;7.30;100.00;101445.44;5566836;32;34214;-72
2023/01/02 09:16:20;;;;;;;;;;;;;;;7.46;100.00;101452.97;5539997;32;32650;-72
2023/01/02 09:19:27;;;;;;;;;;;;;;;7.57;100.00;101447.66;5552435;32;32645;-73
2023/01/02 09:22:31;;;;;;;;;;;;;;;7.63;100.00;101445.41;5553094;32;35134;-73
2023/01/02 09:25:38;;;;;;;;;;;;;;;7.34;100.00;101446.87;5568397;32;34032;-73
2023/01/02 09:28:45;;;;;;;;;;;;;;;7.23;100.00;101441.59;5568843;32;34273;-73
2023/01/02 09:31:50;;;;;;;;;;;;;;;7.20;100.00;101442.69;5568574;32;34379;-72
2023/01/02 09:34:54;;;;;;;;;;;;;;;7.35;100.00;101435.34;5568892;32;34515;-72
2023/01/02 09:37:58;;;;;;;;;;;;;;;7.65;100.00;101427.59;5569035;32;34638;-72
2023/01/02 09:41:09;;;;;;;;;;;;;;;7.42;100.00;101418.06;5555178;32;34227;-72
2023/01/02 09:44:20;;;;;;;;;;;;;;;7.47;100.00;101422.97;5568997;32;34927;-73
2023/01/02 09:47:25;;;;;;;;;;;;;;;7.74;100.00;101418.12;5542035;32;34067;-72
2023/01/02 09:50:30;;;;;;;;;;;;;;;7.67;100.00;101415.12;5568787;32;33818;-73
2023/01/02 09:53:33;;;;;;;;;;;;;;;8.03;100.00;101408.66;5568172;32;33999;-73
2023/01/02 09:56:39;;;;;;;;;;;;;;;8.18;100.00;101406.56;5554686;32;32895;-73
2023/01/02 09:59:52;;;;;;;;;;;;;;;8.11;100.00;101406.22;5554401;32;32840;-73
2023/01/02 10:03:16;;;;;;;;;;;;;;;8.27;100.00;101395.22;5568531;32;34878;-72
2023/01/02 10:06:23;;;;;;;;;;;;;;;8.29;100.00;101393.25;5541903;32;33111;-72
2023/01/02 10:09:34;;;;;;;;;;;;;;;8.15;100.00;101391.78;5554528;32;33031;-73
2023/01/02 10:12:46;;;;;;;;;;;;;;;8.27;100.00;101382.84;5554878;32;34843;-72
2023/01/02 10:15:52;;;;;;;;;;;;;;;8.19;100.00;101395.84;5554506;32;32780;-73
2023/01/02 10:18:58;;;;;;;;;;;;;;;7.82;100.00;101382.19;5568621;32;34712;-74
2023/01/02 10:22:03;;;;;;;;;;;;;;;7.65;100.00;101381.91;5568395;32;34141;-72
2023/01/02 10:25:07;;;;;;;;;;;;;;;7.69;100.00;101383.31;5568370;32;34596;-71
2023/01/02 10:28:17;;;;;;;;;;;;;;;7.54;100.00;101372.19;5553882;32;33406;-72
2023/01/02 10:31:24;;;;;;;;;;;;;;;7.84;100.00;101371.50;5554584;32;34769;-71
2023/01/02 10:34:36;;;;;;;;;;;;;;;8.10;100.00;101371.97;5567079;32;34478;-72
2023/01/02 10:37:40;;;;;;;;;;;;;;;8.38;100.00;101365.25;5568245;32;35045;-73
2023/01/02 10:40:46;;;;;;;;;;;;;;;8.32;100.00;101363.13;5554945;32;34229;-72
2023/01/02 10:43:56;;;;;;;;;;;;;;;8.36;100.00;101356.63;5540706;32;33898;-72
2023/01/02 10:47:19;;;;;;;;;;;;;;;8.37;100.00;101353.84;5541121;32;33304;-71
2023/01/02 10:50:26;;;;;;;;;;;;;;;8.32;100.00;101348.13;5568135;32;34117;-72
2023/01/02 10:53:35;;;;;;;;;;;;;;;8.67;100.00;101343.28;5568139;32;34588;-74
2023/01/02 10:56:39;;;;;;;;;;;;;;;8.52;100.00;101334.00;5553972;32;32708;-73
2023/01/02 10:59:42;;;;;;;;;;;;;;;8.61;100.00;101333.25;5541367;32;33855;-73
2023/01/02 11:02:50;;;;;;;;;;;;;;;8.15;100.00;101323.06;5554037;32;34004;-73
2023/01/02 11:05:55;;;;;;;;;;;;;;;8.45;100.00;101317.00;5554409;32;34313;-73
2023/01/02 11:09:17;;;;;;;;;;;;;;;8.61;100.00;101324.47;5567624;32;34352;-73
2023/01/02 11:12:24;;;;;;;;;;;;;;;8.72;100.00;101324.38;5554612;32;34316;-72
2023/01/02 11:15:34;;;;;;;;;;;;;;;8.72;100.00;101317.25;5552861;32;33834;-73
2023/01/02 11:18:44;;;;;;;;;;;;;;;9.07;100.00;101308.06;5567020;32;33609;-73
2023/01/02 11:21:51;;;;;;;;;;;;;;;8.96;100.00;101305.50;5554564;32;34900;-72
2023/01/02 11:25:01;;;;;;;;;;;;;;;9.09;100.00;101304.31;5567985;32;34093;-72
2023/01/02 11:28:16;;;;;;;;;;;;;;;9.16;100.00;101296.66;5567741;32;35077;-72
2023/01/02 11:31:21;;;;;;;;;;;;;;;9.02;100.00;101297.87;5567662;32;34817;-72
2023/01/02 11:34:33;;;;;;;;;;;;;;;9.30;100.00;101285.66;5540922;32;33139;-71
2023/01/02 11:37:44;;;;;;;;;;;;;;;9.57;100.00;101291.13;5567735;32;34711;-72
2023/01/02 11:40:56;;;;;;;;;;;;;;;9.52;100.00;101287.22;5566962;32;32963;-72
2023/01/02 11:44:02;;;;;;;;;;;;;;;9.65;100.00;101273.69;5566701;32;34677;-73
2023/01/02 11:47:13;;;;;;;;;;;;;;;9.75;100.00;101271.88;5566378;32;34448;-72
2023/01/02 11:50:28;;;;;;;;;;;;;;;9.85;100.00;101270.91;5567560;32;35397;-72
2023/01/02 11:53:39;;;;;;;;;;;;;;;10.02;100.00;101267.50;5567424;32;34474;-73
2023/01/02 11:56:49;;;;;;;;;;;;;;;10.14;100.00;101260.25;5567198;32;34196;-73
2023/01/02 11:59:57;;;;;;;;;;;;;;;9.76;100.00;101255.00;5566366;32;33741;-72
2023/01/02 12:03:15;;;;;;;;;;;;;;;9.92;100.00;101252.62;5566714;32;34494;-72
2023/01/02 12:06:22;;;;;;;;;;;;;;;9.73;100.00;101242.84;5566627;32;34050;-72
2023/01/02 12:09:35;;;;;;;;;;;;;;;9.76;100.00;101249.72;5567138;32;34882;-71
2023/01/02 12:13:07;;;;;;;;;;;;;;;9.93;100.00;101248.97;5558719;32;34904;-73
2023/01/02 12:16:18;;;;;;;;;;;;;;;10.19;100.00;101249.22;5553678;32;34661;-72
2023/01/02 12:19:25;;;;;;;;;;;;;;;10.28;100.00;101243.91;5553380;32;34412;-72
2023/01/02 12:22:44;;;;;;;;;;;;;;;9.96;100.00;101241.59;5567192;32;34262;-73
2023/01/02 12:26:06;;;;;;;;;;;;;;;10.24;100.00;101250.47;5553128;32;34690;-72
2023/01/02 12:29:25;;;;;;;;;;;;;;;10.07;100.00;101242.41;5552311;32;33265;-72
2023/01/02 12:33:01;;;;;;;;;;;;;;;10.14;100.00;101241.69;5567081;32;34431;-72
2023/01/02 12:36:31;;;;;;;;;;;;;;;10.31;100.00;101233.00;5567235;32;34160;-73
2023/01/02 12:39:42;;;;;;;;;;;;;;;10.25;100.00;101235.41;5541570;32;34227;-72
2023/01/02 12:43:25;;;;;;;;;;;;;;;10.36;100.00;101230.72;5553987;32;34647;-73
2023/01/02 12:46:48;;;;;;;;;;;;;;;10.11;100.00;101228.72;5479743;32;34306;-72
2023/01/02 12:50:15;;;;;;;;;;;;;;;9.83;100.00;101226.94;5540131;32;35060;-72
2023/01/02 12:53:25;;;;;;;;;;;;;;;9.45;100.00;101228.66;5523151;32;33211;-72
2023/01/02 12:56:52;;;;;;;;;;;;;;;9.56;100.00;101223.22;5566891;32;33936;-71
2023/01/02 13:00:22;;;;;;;;;;;;;;;9.45;100.00;101212.78;5538397;32;33920;-73
2023/01/02 13:03:35;;;;;;;;;;;;;;;9.38;100.00;101216.97;5545968;32;33714;-72
2023/01/02 13:06:42;;;;;;;;;;;;;;;9.22;100.00;101210.53;5566526;32;34508;-72
2023/01/02 13:09:53;;;;;;;;;;;;;;;9.01;100.00;101210.66;5566463;32;34766;-72
2023/01/02 13:13:01;;;;;;;;;;;;;;;9.02;100.00;101210.53;5551451;32;34862;-72
2023/01/02 13:16:10;;;;;;;;;;;;;;;9.03;100.00;101212.22;5566187;32;34169;-72
2023/01/02 13:19:37;;;;;;;;;;;;;;;8.95;100.00;101211.22;5540604;32;33129;-73
2023/01/02 13:23:01;;;;;;;;;;;;;;;8.85;100.00;101210.37;5553050;32;33726;-72
2023/01/02 13:26:17;;;;;;;;;;;;;;;8.80;100.00;101208.12;5566441;32;34948;-72
2023/01/02 13:29:29;;;;;;;;;;;;;;;8.83;100.00;101204.38;5552564;32;34191;-72
2023/01/02 13:32:35;;;;;;;;;;;;;;;8.89;100.00;101211.78;5551772;32;33560;-71
2023/01/02 13:35:42;;;;;;;;;;;;;;;8.66;100.00;101209.38;5563252;31;34254;-72
2023/01/02 13:39:10;;;;;;;;;;;;;;;8.60;100.00;101215.19;5552164;32;34495;-72
2023/01/02 13:46:01;;;;;;;;;;;;;;;8.39;100.00;101208.28;5565680;32;34433;-71
2023/01/02 13:49:16;;;;;;;;;;;;;;;8.61;100.00;101216.03;5565810;32;34570;-71
2023/01/02 13:52:24;;;;;;;;;;;;;;;8.80;100.00;101202.84;5552280;32;34316;-71
2023/01/02 13:55:40;;;;;;;;;;;;;;;8.79;100.00;101206.47;5551796;32;34872;-71
2023/01/02 13:58:48;;;;;;;;;;;;;;;8.87;100.00;101203.13;5552420;32;34917;-71
2023/01/02 14:02:13;;;;;;;;;;;;;;;8.59;100.00;101207.38;5565718;32;35412;-71
2023/01/02 14:05:39;;;;;;;;;;;;;;;8.51;100.00;101209.87;5565679;32;35022;-72
2023/01/02 14:09:04;;;;;;;;;;;;;;;8.42;100.00;101219.44;5565363;32;34562;-72
2023/01/02 14:12:13;;;;;;;;;;;;;;;8.10;100.00;101219.53;5568303;32;34225;-71
2023/01/02 14:15:21;;;;;;;;;;;;;;;8.19;100.00;101215.25;5542013;32;34796;-71
2023/01/02 14:18:29;;;;;;;;;;;;;;;8.22;100.00;101221.13;5568248;32;34440;-73
2023/01/02 14:21:36;;;;;;;;;;;;;;;8.12;100.00;101220.25;5554826;32;34800;-72
2023/01/02 14:24:51;;;;;;;;;;;;;;;8.13;100.00;101221.09;5568048;32;34749;-71
2023/01/02 14:27:59;;;;;;;;;;;;;;;8.15;100.00;101222.63;5553074;32;35219;-71
2023/01/02 14:31:16;;;;;;;;;;;;;;;7.98;100.00;101225.03;5555168;32;34651;-71
2023/01/02 14:34:23;;;;;;;;;;;;;;;7.94;100.00;101224.44;5553675;32;34322;-72
2023/01/02 14:37:41;;;;;;;;;;;;;;;7.96;100.00;101224.31;5541484;32;33031;-72
2023/01/02 14:40:47;;;;;;;;;;;;;;;7.80;100.00;101228.25;5553713;32;34787;-71
2023/01/02 14:43:53;;;;;;;;;;;;;;;7.77;100.00;101225.88;5567648;32;35093;-71
2023/01/02 14:47:01;;;;;;;;;;;;;;;7.77;100.00;101219.75;5568178;32;34620;-71
2023/01/02 14:50:13;;;;;;;;;;;;;;;7.71;100.00;101222.91;5553123;32;34797;-73
2023/01/02 14:53:17;;;;;;;;;;;;;;;7.65;100.00;101224.25;5554430;32;34335;-73
2023/01/02 14:56:31;;;;;;;;;;;;;;;7.63;100.00;101223.56;5568379;32;34246;-72
2023/01/02 14:59:41;;;;;;;;;;;;;;;7.53;100.00;101216.53;5554621;32;34791;-73
2023/01/02 15:02:52;;;;;;;;;;;;;;;7.37;100.00;101215.16;5554371;32;33607;-73
2023/01/02 15:06:01;;;;;;;;;;;;;;;7.36;100.00;101220.56;5552413;32;34549;-73
2023/01/02 15:09:13;;;;;;;;;;;;;;;7.24;100.00;101214.50;5554416;32;34262;-72
2023/01/02 15:15:49;;;;;;;;;;;;;;;7.18;100.00;101203.59;5567817;32;34262;-72
2023/01/02 15:18:57;;;;;;;;;;;;;;;7.17;100.00;101218.59;5567423;32;34229;-71
2023/01/02 15:22:12;;;;;;;;;;;;;;;7.18;100.00;101204.44;5566082;32;34360;-71
2023/01/02 15:25:33;;;;;;;;;;;;;;;7.19;100.00;101210.56;5557424;32;34159;-70
2023/01/02 15:28:42;;;;;;;;;;;;;;;7.12;100.00;101212.00;5553665;32;34358;-71
2023/01/02 15:31:53;;;;;;;;;;;;;;;7.04;100.00;101211.81;5553923;32;34217;-72
2023/01/02 15:35:12;;;;;;;;;;;;;;;7.03;100.00;101216.25;5540817;32;34122;-72
2023/01/02 15:38:22;;;;;;;;;;;;;;;7.04;100.00;101222.34;5567024;32;34250;-73
2023/01/02 15:41:30;;;;;;;;;;;;;;;7.14;100.00;101221.50;5567131;31;34317;-73
2023/01/02 15:48:03;;;;;;;;;;;;;;;7.14;100.00;101220.66;5566482;32;35185;-71
2023/01/02 15:51:15;;;;;;;;;;;;;;;7.18;100.00;101232.63;5567455;32;34355;-72
2023/01/02 15:54:19;;;;;;;;;;;;;;;7.23;100.00;101226.00;5540673;32;32864;-72
2023/01/02 15:57:26;;;;;;;;;;;;;;;7.28;100.00;101228.28;5565739;32;32995;-72
2023/01/02 16:00:33;;;;;;;;;;;;;;;7.23;100.00;101223.37;5566468;32;33846;-72
2023/01/02 16:03:40;;;;;;;;;;;;;;;7.22;100.00;101234.03;5566852;32;34931;-72
2023/01/02 16:07:21;;;;;;;;;;;;;;;7.25;100.00;101226.75;5543004;32;33512;-72
2023/01/02 16:10:29;;;;;;;;;;;;;;;7.40;100.00;101237.84;5531346;32;34088;-72
2023/01/02 16:17:04;;;;;;;;;;;;;;;7.40;100.00;101235.19;5544422;32;34863;-72
2023/01/02 16:20:13;;;;;;;;;;;;;;;7.31;100.00;101236.78;5546376;32;34911;-73
2023/01/02 16:23:20;;;;;;;;;;;;;;;7.32;100.00;101248.16;5531246;32;35432;-72
2023/01/02 16:26:31;;;;;;;;;;;;;;;7.36;100.00;101246.94;5545577;32;34214;-73
2023/01/02 16:29:40;;;;;;;;;;;;;;;7.22;100.00;101249.88;5533826;32;33100;-72
2023/01/02 16:32:50;;;;;;;;;;;;;;;7.17;100.00;101250.25;5533293;32;35256;-72
2023/01/02 16:36:06;;;;;;;;;;;;;;;7.09;100.00;101250.06;5533835;32;33858;-72